sensor_id;sensor_type;location;lat;lon;timestamp;P1;P2;P0
46381;PMS5003;66809;52.974;-2.514;2023-07-24T00:01:40;0.3;0.15;
46381;PMS5003;66809;52.974;-2.514;2023-07-24T00:03:40;0.35;0.18333333333333332;
46381;PMS5003;66809;52.974;-2.514;2023-07-24T00:05:40;0.36666666666666664;0.2;
46381;PMS5003;66809;52.974;-2.514;2023-07-24T00:07:40;0.43333333333333335;0.23333333333333334;
46381;PMS5003;66809;52.974;-2.514;2023-07-24T00:09:39;0.45;0.25;
46381;PMS5003;66809;52.974;-2.514;2023-07-24T00:11:40;0.4666666666666667;0.2833333333333333;
46381;PMS5003;66809;52.974;-2.514;2023-07-24T00:13:40;0.4666666666666667;0.2833333333333333;
46381;PMS5003;66809;52.974;-2.514;2023-07-24T00:15:40;0.4666666666666667;0.2833333333333333;
46381;PMS5003;66809;52.974;-2.514;2023-07-24T00:17:40;0.5;0.31666666666666665;
46381;PMS5003;66809;52.974;-2.514;2023-07-24T00:19:40;0.5333333333333333;0.35;
46381;PMS5003;66809;52.974;-2.514;2023-07-24T00:21:40;0.5833333333333334;0.4;
46381;PMS5003;66809;52.974;-2.514;2023-07-24T00:23:40;0.6166666666666667;0.43333333333333335;
46381;PMS5003;66809;52.974;-2.514;2023-07-24T00:25:40;0.6333333333333333;0.45;
46381;PMS5003;66809;52.974;-2.514;2023-07-24T00:27:40;0.6333333333333333;0.4666666666666667;
46381;PMS5003;66809;52.974;-2.514;2023-07-24T00:29:40;0.6666666666666666;0.5;
46381;PMS5003;66809;52.974;-2.514;2023-07-24T00:31:40;0.65;0.5166666666666667;
46381;PMS5003;66809;52.974;-2.514;2023-07-24T00:33:40;0.7333333333333333;0.5666666666666667;
46381;PMS5003;66809;52.974;-2.514;2023-07-24T00:35:39;0.7833333333333333;0.6;
46381;PMS5003;66809;52.974;-2.514;2023-07-24T00:37:40;0.8166666666666667;0.6333333333333333;
46381;PMS5003;66809;52.974;-2.514;2023-07-24T00:39:40;0.85;0.65;
46381;PMS5003;66809;52.974;-2.514;2023-07-24T00:41:40;0.85;0.65;
46381;PMS5003;66809;52.974;-2.514;2023-07-24T00:43:40;0.9333333333333333;0.7333333333333333;
46381;PMS5003;66809;52.974;-2.514;2023-07-24T00:45:40;0.95;0.75;
46381;PMS5003;66809;52.974;-2.514;2023-07-24T00:47:41;0.9333333333333333;0.75;
46381;PMS5003;66809;52.974;-2.514;2023-07-24T00:49:40;0.9833333333333333;0.8;
46381;PMS5003;66809;52.974;-2.514;2023-07-24T00:51:40;1.0666666666666667;0.8833333333333333;
46381;PMS5003;66809;52.974;-2.514;2023-07-24T00:53:40;1.1;0.9166666666666666;
46381;PMS5003;66809;52.974;-2.514;2023-07-24T00:55:40;1.1833333333333333;1.0;
46381;PMS5003;66809;52.974;-2.514;2023-07-24T00:57:40;1.2666666666666666;1.0666666666666667;
46381;PMS5003;66809;52.974;-2.514;2023-07-24T00:59:40;1.3666666666666667;1.15;
46381;PMS5003;66809;52.974;-2.514;2023-07-24T01:01:40;1.4833333333333334;1.2333333333333334;
46381;PMS5003;66809;52.974;-2.514;2023-07-24T01:03:40;1.5166666666666666;1.2666666666666666;
46381;PMS5003;66809;52.974;-2.514;2023-07-24T01:05:40;1.5833333333333333;1.3333333333333333;
46381;PMS5003;66809;52.974;-2.514;2023-07-24T01:07:40;1.6666666666666667;1.4;
46381;PMS5003;66809;52.974;-2.514;2023-07-24T01:09:40;1.7666666666666666;1.4833333333333334;
46381;PMS5003;66809;52.974;-2.514;2023-07-24T01:11:41;1.85;1.55;
46381;PMS5003;66809;52.974;-2.514;2023-07-24T01:13:42;1.9166666666666667;1.6;
46381;PMS5003;66809;52.974;-2.514;2023-07-24T01:15:42;2.0;1.6666666666666667;
46381;PMS5003;66809;52.974;-2.514;2023-07-24T01:17:42;2.033333333333333;1.7;
46381;PMS5003;66809;52.974;-2.514;2023-07-24T01:19:41;2.1166666666666667;1.75;
46381;PMS5003;66809;52.974;-2.514;2023-07-24T01:21:44;2.1666666666666665;1.7666666666666666;
46381;PMS5003;66809;52.974;-2.514;2023-07-24T01:23:44;2.25;1.8333333333333333;
46381;PMS5003;66809;52.974;-2.514;2023-07-24T01:25:45;2.3333333333333335;1.9166666666666667;
46381;PMS5003;66809;52.974;-2.514;2023-07-24T01:27:41;2.433333333333333;2.0166666666666666;
46381;PMS5003;66809;52.974;-2.514;2023-07-24T01:29:40;2.45;2.033333333333333;
46381;PMS5003;66809;52.974;-2.514;2023-07-24T01:31:40;2.533333333333333;2.1166666666666667;
46381;PMS5003;66809;52.974;-2.514;2023-07-24T01:33:39;2.5166666666666666;2.1333333333333333;
46381;PMS5003;66809;52.974;-2.514;2023-07-24T01:35:40;2.55;2.183333333333333;
46381;PMS5003;66809;52.974;-2.514;2023-07-24T01:37:41;2.6166666666666667;2.25;
46381;PMS5003;66809;52.974;-2.514;2023-07-24T01:39:40;2.683333333333333;2.316666666666667;
46381;PMS5003;66809;52.974;-2.514;2023-07-24T01:41:40;2.716666666666667;2.35;
46381;PMS5003;66809;52.974;-2.514;2023-07-24T01:43:40;2.6666666666666665;2.3;
46381;PMS5003;66809;52.974;-2.514;2023-07-24T01:45:40;2.7;2.3333333333333335;
46381;PMS5003;66809;52.974;-2.514;2023-07-24T01:47:40;2.7;2.3666666666666667;
46381;PMS5003;66809;52.974;-2.514;2023-07-24T01:49:40;2.7666666666666666;2.4166666666666665;
46381;PMS5003;66809;52.974;-2.514;2023-07-24T01:51:40;2.75;2.3666666666666667;
46381;PMS5003;66809;52.974;-2.514;2023-07-24T01:53:40;2.783333333333333;2.4;
46381;PMS5003;66809;52.974;-2.514;2023-07-24T01:55:40;2.816666666666667;2.433333333333333;
46381;PMS5003;66809;52.974;-2.514;2023-07-24T01:57:40;2.816666666666667;2.433333333333333;
46381;PMS5003;66809;52.974;-2.514;2023-07-24T01:59:40;2.8333333333333335;2.433333333333333;
46381;PMS5003;66809;52.974;-2.514;2023-07-24T02:01:40;2.783333333333333;2.4166666666666665;
46381;PMS5003;66809;52.974;-2.514;2023-07-24T02:03:40;2.8;2.45;
46381;PMS5003;66809;52.974;-2.514;2023-07-24T02:05:40;2.816666666666667;2.466666666666667;
46381;PMS5003;66809;52.974;-2.514;2023-07-24T02:07:40;2.7333333333333334;2.433333333333333;
46381;PMS5003;66809;52.974;-2.514;2023-07-24T02:09:40;2.7;2.4166666666666665;
46381;PMS5003;66809;52.974;-2.514;2023-07-24T02:11:40;2.6333333333333333;2.35;
46381;PMS5003;66809;52.974;-2.514;2023-07-24T02:13:40;2.65;2.3833333333333333;
46381;PMS5003;66809;52.974;-2.514;2023-07-24T02:15:40;2.6666666666666665;2.4166666666666665;
46381;PMS5003;66809;52.974;-2.514;2023-07-24T02:17:40;2.6333333333333333;2.3833333333333333;
46381;PMS5003;66809;52.974;-2.514;2023-07-24T02:19:39;2.566666666666667;2.35;
46381;PMS5003;66809;52.974;-2.514;2023-07-24T02:21:40;2.5166666666666666;2.3333333333333335;
46381;PMS5003;66809;52.974;-2.514;2023-07-24T02:23:40;2.466666666666667;2.3;
46381;PMS5003;66809;52.974;-2.514;2023-07-24T02:25:41;2.45;2.2666666666666666;
46381;PMS5003;66809;52.974;-2.514;2023-07-24T02:27:40;2.4166666666666665;2.216666666666667;
46381;PMS5003;66809;52.974;-2.514;2023-07-24T02:29:40;2.45;2.216666666666667;
46381;PMS5003;66809;52.974;-2.514;2023-07-24T02:31:40;2.4166666666666665;2.183333333333333;
46381;PMS5003;66809;52.974;-2.514;2023-07-24T02:33:40;2.3833333333333333;2.15;
46381;PMS5003;66809;52.974;-2.514;2023-07-24T02:35:40;2.3833333333333333;2.15;
46381;PMS5003;66809;52.974;-2.514;2023-07-24T02:37:40;2.3833333333333333;2.1333333333333333;
46381;PMS5003;66809;52.974;-2.514;2023-07-24T02:39:40;2.316666666666667;2.0833333333333335;
46381;PMS5003;66809;52.974;-2.514;2023-07-24T02:41:40;2.35;2.1166666666666667;
46381;PMS5003;66809;52.974;-2.514;2023-07-24T02:43:40;2.433333333333333;2.2;
46381;PMS5003;66809;52.974;-2.514;2023-07-24T02:45:40;2.5;2.2666666666666666;
46381;PMS5003;66809;52.974;-2.514;2023-07-24T02:47:40;2.55;2.316666666666667;
46381;PMS5003;66809;52.974;-2.514;2023-07-24T02:49:40;2.566666666666667;2.35;
46381;PMS5003;66809;52.974;-2.514;2023-07-24T02:51:41;2.6;2.4166666666666665;
46381;PMS5003;66809;52.974;-2.514;2023-07-24T02:53:40;2.6166666666666667;2.433333333333333;
46381;PMS5003;66809;52.974;-2.514;2023-07-24T02:55:41;2.6166666666666667;2.4;
46381;PMS5003;66809;52.974;-2.514;2023-07-24T02:57:39;2.5833333333333335;2.3833333333333333;
46381;PMS5003;66809;52.974;-2.514;2023-07-24T02:59:40;2.6;2.4166666666666665;
46381;PMS5003;66809;52.974;-2.514;2023-07-24T03:01:40;2.6666666666666665;2.433333333333333;
46381;PMS5003;66809;52.974;-2.514;2023-07-24T03:03:40;2.683333333333333;2.45;
46381;PMS5003;66809;52.974;-2.514;2023-07-24T03:05:40;2.7333333333333334;2.5;
46381;PMS5003;66809;52.974;-2.514;2023-07-24T03:07:40;2.8;2.566666666666667;
46381;PMS5003;66809;52.974;-2.514;2023-07-24T03:09:40;2.8333333333333335;2.55;
46381;PMS5003;66809;52.974;-2.514;2023-07-24T03:11:40;2.9;2.6333333333333333;
46381;PMS5003;66809;52.974;-2.514;2023-07-24T03:13:40;2.966666666666667;2.6666666666666665;
46381;PMS5003;66809;52.974;-2.514;2023-07-24T03:15:40;2.9833333333333334;2.683333333333333;
46381;PMS5003;66809;52.974;-2.514;2023-07-24T03:17:40;3.066666666666667;2.75;
46381;PMS5003;66809;52.974;-2.514;2023-07-24T03:19:40;3.2;2.8333333333333335;
46381;PMS5003;66809;52.974;-2.514;2023-07-24T03:21:40;3.283333333333333;2.9;
46381;PMS5003;66809;52.974;-2.514;2023-07-24T03:23:40;3.3666666666666667;2.966666666666667;
46381;PMS5003;66809;52.974;-2.514;2023-07-24T03:25:40;3.433333333333333;3.05;
46381;PMS5003;66809;52.974;-2.514;2023-07-24T03:27:40;3.5166666666666666;3.1333333333333333;
46381;PMS5003;66809;52.974;-2.514;2023-07-24T03:29:40;3.566666666666667;3.2;
46381;PMS5003;66809;52.974;-2.514;2023-07-24T03:31:40;3.683333333333333;3.3;
46381;PMS5003;66809;52.974;-2.514;2023-07-24T03:33:40;3.8;3.4166666666666665;
46381;PMS5003;66809;52.974;-2.514;2023-07-24T03:35:40;3.933333333333333;3.533333333333333;
46381;PMS5003;66809;52.974;-2.514;2023-07-24T03:37:39;4.016666666666667;3.6166666666666667;
46381;PMS5003;66809;52.974;-2.514;2023-07-24T03:39:40;4.25;3.783333333333333;
46381;PMS5003;66809;52.974;-2.514;2023-07-24T03:41:41;4.433333333333334;3.9166666666666665;
46381;PMS5003;66809;52.974;-2.514;2023-07-24T03:43:40;4.533333333333333;4.016666666666667;
46381;PMS5003;66809;52.974;-2.514;2023-07-24T03:45:40;4.566666666666666;4.033333333333333;
46381;PMS5003;66809;52.974;-2.514;2023-07-24T03:47:40;4.633333333333334;4.083333333333333;
46381;PMS5003;66809;52.974;-2.514;2023-07-24T03:49:40;4.733333333333333;4.116666666666666;
46381;PMS5003;66809;52.974;-2.514;2023-07-24T03:51:40;4.883333333333334;4.2;
46381;PMS5003;66809;52.974;-2.514;2023-07-24T03:53:40;4.95;4.266666666666667;
46381;PMS5003;66809;52.974;-2.514;2023-07-24T03:55:40;5.066666666666666;4.416666666666667;
46381;PMS5003;66809;52.974;-2.514;2023-07-24T03:57:40;5.3;4.65;
46381;PMS5003;66809;52.974;-2.514;2023-07-24T03:59:40;5.4;4.766666666666667;
46381;PMS5003;66809;52.974;-2.514;2023-07-24T04:01:40;5.483333333333333;4.9;
46381;PMS5003;66809;52.974;-2.514;2023-07-24T04:03:40;5.6;4.983333333333333;
46381;PMS5003;66809;52.974;-2.514;2023-07-24T04:05:40;5.683333333333334;5.016666666666667;
46381;PMS5003;66809;52.974;-2.514;2023-07-24T04:07:40;5.833333333333333;5.15;
46381;PMS5003;66809;52.974;-2.514;2023-07-24T04:09:40;5.966666666666667;5.283333333333333;
46381;PMS5003;66809;52.974;-2.514;2023-07-24T04:11:40;6.05;5.366666666666666;
46381;PMS5003;66809;52.974;-2.514;2023-07-24T04:13:40;6.15;5.45;
46381;PMS5003;66809;52.974;-2.514;2023-07-24T04:15:40;6.283333333333333;5.533333333333333;
46381;PMS5003;66809;52.974;-2.514;2023-07-24T04:17:40;6.416666666666667;5.633333333333334;
46381;PMS5003;66809;52.974;-2.514;2023-07-24T04:19:40;6.416666666666667;5.683333333333334;
46381;PMS5003;66809;52.974;-2.514;2023-07-24T04:21:40;6.55;5.816666666666666;
46381;PMS5003;66809;52.974;-2.514;2023-07-24T04:23:40;6.633333333333334;5.883333333333334;
46381;PMS5003;66809;52.974;-2.514;2023-07-24T04:25:40;6.716666666666667;5.916666666666667;
46381;PMS5003;66809;52.974;-2.514;2023-07-24T04:27:40;6.783333333333333;5.983333333333333;
46381;PMS5003;66809;52.974;-2.514;2023-07-24T04:29:40;6.933333333333334;6.083333333333333;
46381;PMS5003;66809;52.974;-2.514;2023-07-24T04:31:40;7.066666666666666;6.216666666666667;
46381;PMS5003;66809;52.974;-2.514;2023-07-24T04:33:40;7.2;6.35;
46381;PMS5003;66809;52.974;-2.514;2023-07-24T04:35:40;7.216666666666667;6.333333333333333;
46381;PMS5003;66809;52.974;-2.514;2023-07-24T04:37:40;7.266666666666667;6.4;
46381;PMS5003;66809;52.974;-2.514;2023-07-24T04:39:40;7.2;6.35;
46381;PMS5003;66809;52.974;-2.514;2023-07-24T04:41:39;7.216666666666667;6.383333333333334;
46381;PMS5003;66809;52.974;-2.514;2023-07-24T04:43:40;7.233333333333333;6.4;
46381;PMS5003;66809;52.974;-2.514;2023-07-24T04:45:40;7.283333333333333;6.45;
46381;PMS5003;66809;52.974;-2.514;2023-07-24T04:47:40;7.516666666666667;6.583333333333333;
46381;PMS5003;66809;52.974;-2.514;2023-07-24T04:49:40;7.566666666666666;6.7;
46381;PMS5003;66809;52.974;-2.514;2023-07-24T04:51:40;7.6;6.766666666666667;
46381;PMS5003;66809;52.974;-2.514;2023-07-24T04:53:40;7.733333333333333;6.85;
46381;PMS5003;66809;52.974;-2.514;2023-07-24T04:55:40;7.8;6.85;
46381;PMS5003;66809;52.974;-2.514;2023-07-24T04:57:40;7.7;6.766666666666667;
46381;PMS5003;66809;52.974;-2.514;2023-07-24T04:59:40;7.683333333333334;6.766666666666667;
46381;PMS5003;66809;52.974;-2.514;2023-07-24T05:01:40;7.683333333333334;6.75;
46381;PMS5003;66809;52.974;-2.514;2023-07-24T05:03:40;7.733333333333333;6.816666666666666;
46381;PMS5003;66809;52.974;-2.514;2023-07-24T05:05:40;7.75;6.883333333333334;
46381;PMS5003;66809;52.974;-2.514;2023-07-24T05:07:40;7.716666666666667;6.85;
46381;PMS5003;66809;52.974;-2.514;2023-07-24T05:09:40;7.733333333333333;6.883333333333334;
46381;PMS5003;66809;52.974;-2.514;2023-07-24T05:11:40;7.766666666666667;6.9;
46381;PMS5003;66809;52.974;-2.514;2023-07-24T05:13:39;7.7;6.883333333333334;
46381;PMS5003;66809;52.974;-2.514;2023-07-24T05:15:40;7.683333333333334;6.9;
46381;PMS5003;66809;52.974;-2.514;2023-07-24T05:17:40;7.75;6.966666666666667;
46381;PMS5003;66809;52.974;-2.514;2023-07-24T05:19:40;7.75;6.95;
46381;PMS5003;66809;52.974;-2.514;2023-07-24T05:21:40;7.816666666666666;6.95;
46381;PMS5003;66809;52.974;-2.514;2023-07-24T05:23:40;7.85;7.0;
46381;PMS5003;66809;52.974;-2.514;2023-07-24T05:25:40;7.8;7.0;
46381;PMS5003;66809;52.974;-2.514;2023-07-24T05:27:40;7.8;7.0;
46381;PMS5003;66809;52.974;-2.514;2023-07-24T05:29:40;7.75;7.0;
46381;PMS5003;66809;52.974;-2.514;2023-07-24T05:31:40;7.683333333333334;6.916666666666667;
46381;PMS5003;66809;52.974;-2.514;2023-07-24T05:33:40;7.65;6.883333333333334;
46381;PMS5003;66809;52.974;-2.514;2023-07-24T05:35:40;7.666666666666667;6.916666666666667;
46381;PMS5003;66809;52.974;-2.514;2023-07-24T05:37:40;7.666666666666667;6.9;
46381;PMS5003;66809;52.974;-2.514;2023-07-24T05:39:40;7.716666666666667;6.966666666666667;
46381;PMS5003;66809;52.974;-2.514;2023-07-24T05:41:40;7.75;7.0;
46381;PMS5003;66809;52.974;-2.514;2023-07-24T05:43:40;7.733333333333333;6.983333333333333;
46381;PMS5003;66809;52.974;-2.514;2023-07-24T05:45:40;7.783333333333333;7.016666666666667;
46381;PMS5003;66809;52.974;-2.514;2023-07-24T05:47:40;7.733333333333333;7.033333333333333;
46381;PMS5003;66809;52.974;-2.514;2023-07-24T05:49:40;7.8;7.033333333333333;
46381;PMS5003;66809;52.974;-2.514;2023-07-24T05:51:40;7.766666666666667;7.0;
46381;PMS5003;66809;52.974;-2.514;2023-07-24T05:53:39;7.766666666666667;7.033333333333333;
46381;PMS5003;66809;52.974;-2.514;2023-07-24T05:55:40;7.666666666666667;6.983333333333333;
46381;PMS5003;66809;52.974;-2.514;2023-07-24T05:57:40;7.616666666666666;6.933333333333334;
46381;PMS5003;66809;52.974;-2.514;2023-07-24T05:59:40;7.683333333333334;6.983333333333333;
46381;PMS5003;66809;52.974;-2.514;2023-07-24T06:01:40;7.733333333333333;7.05;
46381;PMS5003;66809;52.974;-2.514;2023-07-24T06:03:40;7.733333333333333;7.016666666666667;
46381;PMS5003;66809;52.974;-2.514;2023-07-24T06:05:40;7.683333333333334;6.933333333333334;
46381;PMS5003;66809;52.974;-2.514;2023-07-24T06:07:40;7.716666666666667;6.966666666666667;
46381;PMS5003;66809;52.974;-2.514;2023-07-24T06:09:40;7.633333333333334;6.916666666666667;
46381;PMS5003;66809;52.974;-2.514;2023-07-24T06:11:40;7.583333333333333;6.883333333333334;
46381;PMS5003;66809;52.974;-2.514;2023-07-24T06:13:40;7.583333333333333;6.85;
46381;PMS5003;66809;52.974;-2.514;2023-07-24T06:15:40;7.533333333333333;6.8;
46381;PMS5003;66809;52.974;-2.514;2023-07-24T06:17:40;7.383333333333334;6.7;
46381;PMS5003;66809;52.974;-2.514;2023-07-24T06:19:40;7.433333333333334;6.716666666666667;
46381;PMS5003;66809;52.974;-2.514;2023-07-24T06:21:39;7.333333333333333;6.666666666666667;
46381;PMS5003;66809;52.974;-2.514;2023-07-24T06:23:40;7.283333333333333;6.633333333333334;
46381;PMS5003;66809;52.974;-2.514;2023-07-24T06:25:40;7.366666666666666;6.666666666666667;
46381;PMS5003;66809;52.974;-2.514;2023-07-24T06:27:40;7.316666666666666;6.6;
46381;PMS5003;66809;52.974;-2.514;2023-07-24T06:29:40;7.266666666666667;6.516666666666667;
46381;PMS5003;66809;52.974;-2.514;2023-07-24T06:31:40;7.216666666666667;6.5;
46381;PMS5003;66809;52.974;-2.514;2023-07-24T06:33:40;7.266666666666667;6.533333333333333;
46381;PMS5003;66809;52.974;-2.514;2023-07-24T06:35:40;7.35;6.583333333333333;
46381;PMS5003;66809;52.974;-2.514;2023-07-24T06:37:40;7.316666666666666;6.55;
46381;PMS5003;66809;52.974;-2.514;2023-07-24T06:39:40;7.4;6.566666666666666;
46381;PMS5003;66809;52.974;-2.514;2023-07-24T06:41:40;7.266666666666667;6.45;
46381;PMS5003;66809;52.974;-2.514;2023-07-24T06:43:40;7.416666666666667;6.516666666666667;
46381;PMS5003;66809;52.974;-2.514;2023-07-24T06:45:40;7.383333333333334;6.5;
46381;PMS5003;66809;52.974;-2.514;2023-07-24T06:47:40;7.25;6.366666666666666;
46381;PMS5003;66809;52.974;-2.514;2023-07-24T06:49:40;7.083333333333333;6.216666666666667;
46381;PMS5003;66809;52.974;-2.514;2023-07-24T06:51:40;7.016666666666667;6.166666666666667;
46381;PMS5003;66809;52.974;-2.514;2023-07-24T06:53:40;6.916666666666667;6.033333333333333;
46381;PMS5003;66809;52.974;-2.514;2023-07-24T06:55:41;6.916666666666667;6.033333333333333;
46381;PMS5003;66809;52.974;-2.514;2023-07-24T06:57:40;6.95;6.05;
46381;PMS5003;66809;52.974;-2.514;2023-07-24T06:59:40;6.866666666666666;5.95;
46381;PMS5003;66809;52.974;-2.514;2023-07-24T07:01:40;6.783333333333333;5.866666666666666;
46381;PMS5003;66809;52.974;-2.514;2023-07-24T07:03:40;6.7;5.8;
46381;PMS5003;66809;52.974;-2.514;2023-07-24T07:05:40;6.65;5.766666666666667;
46381;PMS5003;66809;52.974;-2.514;2023-07-24T07:07:40;6.516666666666667;5.65;
46381;PMS5003;66809;52.974;-2.514;2023-07-24T07:09:40;6.55;5.666666666666667;
46381;PMS5003;66809;52.974;-2.514;2023-07-24T07:11:40;6.633333333333334;5.716666666666667;
46381;PMS5003;66809;52.974;-2.514;2023-07-24T07:13:40;6.7;5.75;
46381;PMS5003;66809;52.974;-2.514;2023-07-24T07:15:40;6.783333333333333;5.75;
46381;PMS5003;66809;52.974;-2.514;2023-07-24T07:17:40;6.883333333333334;5.783333333333333;
46381;PMS5003;66809;52.974;-2.514;2023-07-24T07:19:40;6.816666666666666;5.766666666666667;
46381;PMS5003;66809;52.974;-2.514;2023-07-24T07:21:40;6.816666666666666;5.766666666666667;
46381;PMS5003;66809;52.974;-2.514;2023-07-24T07:23:40;6.816666666666666;5.716666666666667;
46381;PMS5003;66809;52.974;-2.514;2023-07-24T07:25:40;6.816666666666666;5.766666666666667;
46381;PMS5003;66809;52.974;-2.514;2023-07-24T07:27:40;6.833333333333333;5.783333333333333;
46381;PMS5003;66809;52.974;-2.514;2023-07-24T07:29:40;6.766666666666667;5.766666666666667;
46381;PMS5003;66809;52.974;-2.514;2023-07-24T07:31:40;6.8;5.75;
46381;PMS5003;66809;52.974;-2.514;2023-07-24T07:33:40;6.65;5.616666666666666;
46381;PMS5003;66809;52.974;-2.514;2023-07-24T07:35:40;6.483333333333333;5.516666666666667;
46381;PMS5003;66809;52.974;-2.514;2023-07-24T07:37:40;6.366666666666666;5.416666666666667;
46381;PMS5003;66809;52.974;-2.514;2023-07-24T07:39:40;6.2;5.3;
46381;PMS5003;66809;52.974;-2.514;2023-07-24T07:41:40;6.183333333333334;5.3;
46381;PMS5003;66809;52.974;-2.514;2023-07-24T07:43:40;5.983333333333333;5.166666666666667;
46381;PMS5003;66809;52.974;-2.514;2023-07-24T07:45:39;5.966666666666667;5.116666666666666;
46381;PMS5003;66809;52.974;-2.514;2023-07-24T07:47:40;5.9;5.05;
46381;PMS5003;66809;52.974;-2.514;2023-07-24T07:49:40;5.883333333333334;5.066666666666666;
46381;PMS5003;66809;52.974;-2.514;2023-07-24T07:51:40;5.9;5.066666666666666;
46381;PMS5003;66809;52.974;-2.514;2023-07-24T07:53:40;5.833333333333333;5.033333333333333;
46381;PMS5003;66809;52.974;-2.514;2023-07-24T07:55:39;5.866666666666666;5.016666666666667;
46381;PMS5003;66809;52.974;-2.514;2023-07-24T07:57:40;5.866666666666666;5.016666666666667;
46381;PMS5003;66809;52.974;-2.514;2023-07-24T07:59:40;5.833333333333333;5.0;
46381;PMS5003;66809;52.974;-2.514;2023-07-24T08:01:40;5.766666666666667;4.933333333333334;
46381;PMS5003;66809;52.974;-2.514;2023-07-24T08:03:40;5.7;4.883333333333334;
46381;PMS5003;66809;52.974;-2.514;2023-07-24T08:05:40;5.666666666666667;4.866666666666666;
46381;PMS5003;66809;52.974;-2.514;2023-07-24T08:07:40;5.65;4.816666666666666;
46381;PMS5003;66809;52.974;-2.514;2023-07-24T08:09:40;5.516666666666667;4.7;
46381;PMS5003;66809;52.974;-2.514;2023-07-24T08:11:40;5.416666666666667;4.6;
46381;PMS5003;66809;52.974;-2.514;2023-07-24T08:13:40;5.2;4.45;
46381;PMS5003;66809;52.974;-2.514;2023-07-24T08:15:40;5.116666666666666;4.4;
46381;PMS5003;66809;52.974;-2.514;2023-07-24T08:17:40;4.983333333333333;4.333333333333333;
46381;PMS5003;66809;52.974;-2.514;2023-07-24T08:19:40;5.033333333333333;4.333333333333333;
46381;PMS5003;66809;52.974;-2.514;2023-07-24T08:21:41;5.016666666666667;4.283333333333333;
46381;PMS5003;66809;52.974;-2.514;2023-07-24T08:23:40;4.95;4.25;
46381;PMS5003;66809;52.974;-2.514;2023-07-24T08:25:40;4.85;4.133333333333334;
46381;PMS5003;66809;52.974;-2.514;2023-07-24T08:27:40;4.85;4.133333333333334;
46381;PMS5003;66809;52.974;-2.514;2023-07-24T08:29:40;4.883333333333334;4.166666666666667;
46381;PMS5003;66809;52.974;-2.514;2023-07-24T08:31:40;4.816666666666666;4.116666666666666;
46381;PMS5003;66809;52.974;-2.514;2023-07-24T08:33:40;4.9;4.15;
46381;PMS5003;66809;52.974;-2.514;2023-07-24T08:35:40;4.85;4.1;
46381;PMS5003;66809;52.974;-2.514;2023-07-24T08:37:42;4.933333333333334;4.183333333333334;
46381;PMS5003;66809;52.974;-2.514;2023-07-24T08:39:40;4.95;4.233333333333333;
46381;PMS5003;66809;52.974;-2.514;2023-07-24T08:41:40;4.966666666666667;4.2;
46381;PMS5003;66809;52.974;-2.514;2023-07-24T08:43:41;5.0;4.2;
46381;PMS5003;66809;52.974;-2.514;2023-07-24T08:45:40;4.983333333333333;4.183333333333334;
46381;PMS5003;66809;52.974;-2.514;2023-07-24T08:47:41;4.966666666666667;4.216666666666667;
46381;PMS5003;66809;52.974;-2.514;2023-07-24T08:49:40;5.033333333333333;4.283333333333333;
46381;PMS5003;66809;52.974;-2.514;2023-07-24T08:51:40;5.05;4.283333333333333;
46381;PMS5003;66809;52.974;-2.514;2023-07-24T08:53:43;5.15;4.35;
46381;PMS5003;66809;52.974;-2.514;2023-07-24T08:55:40;5.05;4.316666666666666;
46381;PMS5003;66809;52.974;-2.514;2023-07-24T08:57:40;4.983333333333333;4.266666666666667;
46381;PMS5003;66809;52.974;-2.514;2023-07-24T08:59:40;4.916666666666667;4.2;
46381;PMS5003;66809;52.974;-2.514;2023-07-24T09:01:40;4.933333333333334;4.166666666666667;
46381;PMS5003;66809;52.974;-2.514;2023-07-24T09:03:40;4.966666666666667;4.183333333333334;
46381;PMS5003;66809;52.974;-2.514;2023-07-24T09:05:40;5.033333333333333;4.233333333333333;
46381;PMS5003;66809;52.974;-2.514;2023-07-24T09:07:40;5.066666666666666;4.266666666666667;
46381;PMS5003;66809;52.974;-2.514;2023-07-24T09:09:40;5.116666666666666;4.266666666666667;
46381;PMS5003;66809;52.974;-2.514;2023-07-24T09:11:48;5.133333333333334;4.25;
46381;PMS5003;66809;52.974;-2.514;2023-07-24T09:13:41;5.2;4.3;
46381;PMS5003;66809;52.974;-2.514;2023-07-24T09:15:40;5.1;4.25;
46381;PMS5003;66809;52.974;-2.514;2023-07-24T09:17:49;5.083333333333333;4.233333333333333;
46381;PMS5003;66809;52.974;-2.514;2023-07-24T09:19:40;5.0;4.166666666666667;
46381;PMS5003;66809;52.974;-2.514;2023-07-24T09:21:39;4.916666666666667;4.133333333333334;
46381;PMS5003;66809;52.974;-2.514;2023-07-24T09:23:40;4.95;4.15;
46381;PMS5003;66809;52.974;-2.514;2023-07-24T09:25:41;4.916666666666667;4.116666666666666;
46381;PMS5003;66809;52.974;-2.514;2023-07-24T09:27:40;4.85;4.083333333333333;
46381;PMS5003;66809;52.974;-2.514;2023-07-24T09:29:40;4.866666666666666;4.05;
46381;PMS5003;66809;52.974;-2.514;2023-07-24T09:31:40;4.816666666666666;4.016666666666667;
46381;PMS5003;66809;52.974;-2.514;2023-07-24T09:33:40;4.666666666666667;3.9;
46381;PMS5003;66809;52.974;-2.514;2023-07-24T09:35:40;4.683333333333334;3.9166666666666665;
46381;PMS5003;66809;52.974;-2.514;2023-07-24T09:37:40;4.716666666666667;3.933333333333333;
46381;PMS5003;66809;52.974;-2.514;2023-07-24T09:39:40;4.633333333333334;3.816666666666667;